sensor_id;sensor_type;location;lat;lon;timestamp;temperature;humidity
71668;DHT22;59504;54.806;9.640;2022-09-09T00:00:15;14.60;83.40
71668;DHT22;59504;54.806;9.640;2022-09-09T00:02:21;14.50;83.30
71668;DHT22;59504;54.806;9.640;2022-09-09T00:04:33;14.50;83.60
71668;DHT22;59504;54.806;9.640;2022-09-09T00:06:43;14.50;83.10
71668;DHT22;59504;54.806;9.640;2022-09-09T00:09:10;14.50;83.00
71668;DHT22;59504;54.806;9.640;2022-09-09T00:11:13;14.50;83.20
71668;DHT22;59504;54.806;9.640;2022-09-09T00:13:22;14.50;83.00
71668;DHT22;59504;54.806;9.640;2022-09-09T00:17:58;14.50;82.90
71668;DHT22;59504;54.806;9.640;2022-09-09T00:22:25;14.50;82.80
71668;DHT22;59504;54.806;9.640;2022-09-09T00:24:35;14.60;82.80
71668;DHT22;59504;54.806;9.640;2022-09-09T00:26:44;14.50;82.80
71668;DHT22;59504;54.806;9.640;2022-09-09T00:28:56;14.50;82.70
71668;DHT22;59504;54.806;9.640;2022-09-09T00:31:07;14.50;82.70
71668;DHT22;59504;54.806;9.640;2022-09-09T00:33:12;14.50;82.70
71668;DHT22;59504;54.806;9.640;2022-09-09T00:35:25;14.50;82.70
71668;DHT22;59504;54.806;9.640;2022-09-09T00:37:28;14.50;82.70
71668;DHT22;59504;54.806;9.640;2022-09-09T00:39:39;14.50;82.60
71668;DHT22;59504;54.806;9.640;2022-09-09T00:41:51;14.50;82.60
71668;DHT22;59504;54.806;9.640;2022-09-09T00:44:18;14.50;82.60
71668;DHT22;59504;54.806;9.640;2022-09-09T00:46:47;14.50;82.60
71668;DHT22;59504;54.806;9.640;2022-09-09T00:51:44;14.50;82.60
71668;DHT22;59504;54.806;9.640;2022-09-09T00:56:22;14.50;82.60
71668;DHT22;59504;54.806;9.640;2022-09-09T00:58:25;14.50;82.50
71668;DHT22;59504;54.806;9.640;2022-09-09T01:00:30;14.50;82.50
71668;DHT22;59504;54.806;9.640;2022-09-09T01:02:41;14.50;82.50
71668;DHT22;59504;54.806;9.640;2022-09-09T01:04:42;14.50;82.40
71668;DHT22;59504;54.806;9.640;2022-09-09T01:06:45;14.50;82.40
71668;DHT22;59504;54.806;9.640;2022-09-09T01:10:54;14.50;82.40
71668;DHT22;59504;54.806;9.640;2022-09-09T01:12:58;14.50;82.40
71668;DHT22;59504;54.806;9.640;2022-09-09T01:15:22;14.50;82.50
71668;DHT22;59504;54.806;9.640;2022-09-09T01:17:30;14.50;82.60
71668;DHT22;59504;54.806;9.640;2022-09-09T01:24:04;14.50;82.50
71668;DHT22;59504;54.806;9.640;2022-09-09T01:28:19;14.50;82.30
71668;DHT22;59504;54.806;9.640;2022-09-09T01:30:22;14.50;82.40
71668;DHT22;59504;54.806;9.640;2022-09-09T01:32:56;14.50;82.30
71668;DHT22;59504;54.806;9.640;2022-09-09T01:34:59;14.50;82.40
71668;DHT22;59504;54.806;9.640;2022-09-09T01:37:07;14.50;82.30
71668;DHT22;59504;54.806;9.640;2022-09-09T01:39:09;14.60;82.40
71668;DHT22;59504;54.806;9.640;2022-09-09T01:41:10;14.50;82.30
71668;DHT22;59504;54.806;9.640;2022-09-09T01:43:12;14.50;82.30
71668;DHT22;59504;54.806;9.640;2022-09-09T01:45:13;14.60;82.30
71668;DHT22;59504;54.806;9.640;2022-09-09T01:47:15;14.60;82.30
71668;DHT22;59504;54.806;9.640;2022-09-09T01:49:16;14.60;82.30
71668;DHT22;59504;54.806;9.640;2022-09-09T01:51:18;14.70;82.40
71668;DHT22;59504;54.806;9.640;2022-09-09T01:53:20;14.60;82.30
71668;DHT22;59504;54.806;9.640;2022-09-09T01:55:32;14.60;83.00
71668;DHT22;59504;54.806;9.640;2022-09-09T01:57:39;14.60;82.20
71668;DHT22;59504;54.806;9.640;2022-09-09T01:59:57;14.60;82.30
71668;DHT22;59504;54.806;9.640;2022-09-09T02:02:07;14.60;82.20
71668;DHT22;59504;54.806;9.640;2022-09-09T02:08:53;14.60;82.10
71668;DHT22;59504;54.806;9.640;2022-09-09T02:11:01;14.60;82.10
71668;DHT22;59504;54.806;9.640;2022-09-09T02:13:14;14.60;82.00
71668;DHT22;59504;54.806;9.640;2022-09-09T02:15:23;14.60;82.00
71668;DHT22;59504;54.806;9.640;2022-09-09T02:17:30;14.60;82.70
71668;DHT22;59504;54.806;9.640;2022-09-09T02:19:34;14.70;82.00
71668;DHT22;59504;54.806;9.640;2022-09-09T02:21:37;14.70;82.00
71668;DHT22;59504;54.806;9.640;2022-09-09T02:23:40;14.70;82.00
71668;DHT22;59504;54.806;9.640;2022-09-09T02:25:41;14.80;82.00
71668;DHT22;59504;54.806;9.640;2022-09-09T02:27:45;14.70;81.90
71668;DHT22;59504;54.806;9.640;2022-09-09T02:29:47;14.60;81.90
71668;DHT22;59504;54.806;9.640;2022-09-09T02:31:52;14.70;82.20
71668;DHT22;59504;54.806;9.640;2022-09-09T02:33:58;14.70;81.70
71668;DHT22;59504;54.806;9.640;2022-09-09T02:36:00;14.70;81.70
71668;DHT22;59504;54.806;9.640;2022-09-09T02:38:07;14.70;81.80
71668;DHT22;59504;54.806;9.640;2022-09-09T02:40:10;14.70;81.80
71668;DHT22;59504;54.806;9.640;2022-09-09T02:42:11;14.70;81.90
71668;DHT22;59504;54.806;9.640;2022-09-09T02:44:15;14.80;81.90
71668;DHT22;59504;54.806;9.640;2022-09-09T02:49:48;14.70;81.90
71668;DHT22;59504;54.806;9.640;2022-09-09T02:51:45;14.70;81.90
71668;DHT22;59504;54.806;9.640;2022-09-09T02:56:04;14.70;81.80
71668;DHT22;59504;54.806;9.640;2022-09-09T02:58:09;14.70;81.90
71668;DHT22;59504;54.806;9.640;2022-09-09T03:00:12;14.80;81.90
71668;DHT22;59504;54.806;9.640;2022-09-09T03:02:13;14.70;81.90
71668;DHT22;59504;54.806;9.640;2022-09-09T03:04:14;14.70;82.00
71668;DHT22;59504;54.806;9.640;2022-09-09T03:06:14;14.70;82.00
71668;DHT22;59504;54.806;9.640;2022-09-09T03:08:15;14.70;82.10
71668;DHT22;59504;54.806;9.640;2022-09-09T03:10:17;14.70;82.10
71668;DHT22;59504;54.806;9.640;2022-09-09T03:12:17;14.70;82.10
71668;DHT22;59504;54.806;9.640;2022-09-09T03:14:18;14.70;82.20
71668;DHT22;59504;54.806;9.640;2022-09-09T03:16:22;14.80;82.20
71668;DHT22;59504;54.806;9.640;2022-09-09T03:18:23;14.80;82.20
71668;DHT22;59504;54.806;9.640;2022-09-09T03:20:25;14.80;82.20
71668;DHT22;59504;54.806;9.640;2022-09-09T03:22:26;14.80;82.30
71668;DHT22;59504;54.806;9.640;2022-09-09T03:24:27;14.80;82.30
71668;DHT22;59504;54.806;9.640;2022-09-09T03:26:27;14.80;82.30
71668;DHT22;59504;54.806;9.640;2022-09-09T03:28:28;14.80;82.30
71668;DHT22;59504;54.806;9.640;2022-09-09T03:30:31;14.80;82.30
71668;DHT22;59504;54.806;9.640;2022-09-09T03:32:32;14.80;82.30
71668;DHT22;59504;54.806;9.640;2022-09-09T03:34:32;14.80;82.30
71668;DHT22;59504;54.806;9.640;2022-09-09T03:36:33;14.80;82.30
71668;DHT22;59504;54.806;9.640;2022-09-09T03:38:34;14.80;82.30
71668;DHT22;59504;54.806;9.640;2022-09-09T03:40:35;14.90;82.40
71668;DHT22;59504;54.806;9.640;2022-09-09T03:42:36;15.00;82.40
71668;DHT22;59504;54.806;9.640;2022-09-09T03:44:37;14.90;82.40
71668;DHT22;59504;54.806;9.640;2022-09-09T03:46:38;14.90;82.30
71668;DHT22;59504;54.806;9.640;2022-09-09T03:48:38;14.90;82.30
71668;DHT22;59504;54.806;9.640;2022-09-09T03:50:39;14.90;82.30
71668;DHT22;59504;54.806;9.640;2022-09-09T03:52:40;14.90;82.30
71668;DHT22;59504;54.806;9.640;2022-09-09T03:54:42;14.90;82.30
71668;DHT22;59504;54.806;9.640;2022-09-09T03:56:43;15.00;82.40
71668;DHT22;59504;54.806;9.640;2022-09-09T03:58:43;15.00;82.50
71668;DHT22;59504;54.806;9.640;2022-09-09T04:00:54;14.90;82.40
71668;DHT22;59504;54.806;9.640;2022-09-09T04:02:55;15.00;82.50
71668;DHT22;59504;54.806;9.640;2022-09-09T04:04:58;15.00;82.50
71668;DHT22;59504;54.806;9.640;2022-09-09T04:07:00;15.00;82.50
71668;DHT22;59504;54.806;9.640;2022-09-09T04:09:00;15.00;82.50
71668;DHT22;59504;54.806;9.640;2022-09-09T04:11:04;15.00;82.50
71668;DHT22;59504;54.806;9.640;2022-09-09T04:13:26;15.00;82.50
71668;DHT22;59504;54.806;9.640;2022-09-09T04:15:55;15.10;82.40
71668;DHT22;59504;54.806;9.640;2022-09-09T04:18:17;15.10;82.40
71668;DHT22;59504;54.806;9.640;2022-09-09T04:20:38;15.00;82.30
71668;DHT22;59504;54.806;9.640;2022-09-09T04:22:59;15.00;83.00
71668;DHT22;59504;54.806;9.640;2022-09-09T04:25:20;15.00;82.30
71668;DHT22;59504;54.806;9.640;2022-09-09T04:27:40;15.00;82.30
71668;DHT22;59504;54.806;9.640;2022-09-09T04:30:02;15.00;82.30
71668;DHT22;59504;54.806;9.640;2022-09-09T04:32:23;15.00;82.40
71668;DHT22;59504;54.806;9.640;2022-09-09T04:34:43;15.00;82.50
71668;DHT22;59504;54.806;9.640;2022-09-09T04:37:05;15.00;82.50
71668;DHT22;59504;54.806;9.640;2022-09-09T04:39:25;15.10;82.50
71668;DHT22;59504;54.806;9.640;2022-09-09T04:41:46;15.00;82.50
71668;DHT22;59504;54.806;9.640;2022-09-09T04:44:07;15.00;82.50
71668;DHT22;59504;54.806;9.640;2022-09-09T04:46:28;15.00;82.80
71668;DHT22;59504;54.806;9.640;2022-09-09T04:48:49;15.00;82.60
71668;DHT22;59504;54.806;9.640;2022-09-09T04:51:12;15.10;82.70
71668;DHT22;59504;54.806;9.640;2022-09-09T04:53:33;15.00;82.70
71668;DHT22;59504;54.806;9.640;2022-09-09T04:56:10;15.10;82.70
71668;DHT22;59504;54.806;9.640;2022-09-09T04:58:31;15.00;82.70
71668;DHT22;59504;54.806;9.640;2022-09-09T05:00:52;15.10;82.60
71668;DHT22;59504;54.806;9.640;2022-09-09T05:03:12;15.10;82.60
71668;DHT22;59504;54.806;9.640;2022-09-09T05:05:34;15.10;82.70
71668;DHT22;59504;54.806;9.640;2022-09-09T05:08:03;15.10;82.60
71668;DHT22;59504;54.806;9.640;2022-09-09T05:10:24;15.10;82.60
71668;DHT22;59504;54.806;9.640;2022-09-09T05:12:52;15.10;82.50
71668;DHT22;59504;54.806;9.640;2022-09-09T05:15:13;15.10;82.50
71668;DHT22;59504;54.806;9.640;2022-09-09T05:17:34;15.10;82.40
71668;DHT22;59504;54.806;9.640;2022-09-09T05:19:55;15.10;82.30
71668;DHT22;59504;54.806;9.640;2022-09-09T05:22:21;15.10;82.20
71668;DHT22;59504;54.806;9.640;2022-09-09T05:24:43;15.10;82.20
71668;DHT22;59504;54.806;9.640;2022-09-09T05:27:05;15.10;82.20
71668;DHT22;59504;54.806;9.640;2022-09-09T05:29:26;15.00;82.20
71668;DHT22;59504;54.806;9.640;2022-09-09T05:31:47;15.00;82.20
71668;DHT22;59504;54.806;9.640;2022-09-09T05:33:48;15.00;82.10
71668;DHT22;59504;54.806;9.640;2022-09-09T05:36:02;15.00;82.20
71668;DHT22;59504;54.806;9.640;2022-09-09T05:38:03;15.00;82.20
71668;DHT22;59504;54.806;9.640;2022-09-09T05:40:04;15.10;82.30
71668;DHT22;59504;54.806;9.640;2022-09-09T05:42:05;15.00;82.20
71668;DHT22;59504;54.806;9.640;2022-09-09T05:44:05;15.00;82.40
71668;DHT22;59504;54.806;9.640;2022-09-09T05:46:18;15.00;82.50
71668;DHT22;59504;54.806;9.640;2022-09-09T05:48:19;15.00;82.70
71668;DHT22;59504;54.806;9.640;2022-09-09T05:50:19;15.00;82.70
71668;DHT22;59504;54.806;9.640;2022-09-09T05:52:20;15.00;82.70
71668;DHT22;59504;54.806;9.640;2022-09-09T05:54:21;15.00;82.70
71668;DHT22;59504;54.806;9.640;2022-09-09T05:56:23;15.00;82.70
71668;DHT22;59504;54.806;9.640;2022-09-09T05:58:25;15.00;82.70
71668;DHT22;59504;54.806;9.640;2022-09-09T06:00:26;15.10;82.80
71668;DHT22;59504;54.806;9.640;2022-09-09T06:02:27;15.10;82.80
71668;DHT22;59504;54.806;9.640;2022-09-09T06:04:27;15.10;82.70
71668;DHT22;59504;54.806;9.640;2022-09-09T06:06:34;15.10;82.70
71668;DHT22;59504;54.806;9.640;2022-09-09T06:08:39;15.10;82.80
71668;DHT22;59504;54.806;9.640;2022-09-09T06:10:39;15.20;82.80
71668;DHT22;59504;54.806;9.640;2022-09-09T06:12:40;15.20;82.80
71668;DHT22;59504;54.806;9.640;2022-09-09T06:14:41;15.10;82.50
71668;DHT22;59504;54.806;9.640;2022-09-09T06:16:41;15.10;82.40
71668;DHT22;59504;54.806;9.640;2022-09-09T06:18:45;15.10;82.40
71668;DHT22;59504;54.806;9.640;2022-09-09T06:20:55;15.10;82.40
71668;DHT22;59504;54.806;9.640;2022-09-09T06:22:55;15.10;82.30
71668;DHT22;59504;54.806;9.640;2022-09-09T06:24:56;15.10;82.30
71668;DHT22;59504;54.806;9.640;2022-09-09T06:26:57;15.10;82.20
71668;DHT22;59504;54.806;9.640;2022-09-09T06:28:59;15.10;82.90
71668;DHT22;59504;54.806;9.640;2022-09-09T06:31:05;15.10;82.20
71668;DHT22;59504;54.806;9.640;2022-09-09T06:33:06;15.20;82.40
71668;DHT22;59504;54.806;9.640;2022-09-09T06:35:07;15.20;82.30
71668;DHT22;59504;54.806;9.640;2022-09-09T06:37:08;15.20;82.30
71668;DHT22;59504;54.806;9.640;2022-09-09T06:39:08;15.20;82.30
71668;DHT22;59504;54.806;9.640;2022-09-09T06:41:13;15.20;82.10
71668;DHT22;59504;54.806;9.640;2022-09-09T06:43:14;15.20;82.10
71668;DHT22;59504;54.806;9.640;2022-09-09T06:45:14;15.20;82.00
71668;DHT22;59504;54.806;9.640;2022-09-09T06:47:15;15.20;82.10
71668;DHT22;59504;54.806;9.640;2022-09-09T06:49:15;15.20;82.10
71668;DHT22;59504;54.806;9.640;2022-09-09T06:51:20;15.20;82.90
71668;DHT22;59504;54.806;9.640;2022-09-09T06:53:21;15.20;82.10
71668;DHT22;59504;54.806;9.640;2022-09-09T06:55:23;15.20;82.10
71668;DHT22;59504;54.806;9.640;2022-09-09T06:57:24;15.20;82.10
71668;DHT22;59504;54.806;9.640;2022-09-09T06:59:24;15.20;82.20
71668;DHT22;59504;54.806;9.640;2022-09-09T07:01:27;15.20;82.10
71668;DHT22;59504;54.806;9.640;2022-09-09T07:03:29;15.30;82.20
71668;DHT22;59504;54.806;9.640;2022-09-09T07:05:29;15.30;82.10
71668;DHT22;59504;54.806;9.640;2022-09-09T07:07:30;15.30;81.90
71668;DHT22;59504;54.806;9.640;2022-09-09T07:09:31;15.30;81.90
71668;DHT22;59504;54.806;9.640;2022-09-09T07:11:36;15.30;81.80
71668;DHT22;59504;54.806;9.640;2022-09-09T07:13:37;15.30;81.80
71668;DHT22;59504;54.806;9.640;2022-09-09T07:15:38;15.30;81.80
71668;DHT22;59504;54.806;9.640;2022-09-09T07:17:39;15.40;81.70
71668;DHT22;59504;54.806;9.640;2022-09-09T07:19:40;15.30;81.60
71668;DHT22;59504;54.806;9.640;2022-09-09T07:21:40;15.30;81.50
71668;DHT22;59504;54.806;9.640;2022-09-09T07:23:41;15.30;81.50
71668;DHT22;59504;54.806;9.640;2022-09-09T07:25:45;15.30;81.50
71668;DHT22;59504;54.806;9.640;2022-09-09T07:27:46;15.40;81.60
71668;DHT22;59504;54.806;9.640;2022-09-09T07:29:46;15.40;81.60
71668;DHT22;59504;54.806;9.640;2022-09-09T07:31:47;15.40;81.60
71668;DHT22;59504;54.806;9.640;2022-09-09T07:33:48;15.40;81.60
71668;DHT22;59504;54.806;9.640;2022-09-09T07:35:49;15.40;81.60
71668;DHT22;59504;54.806;9.640;2022-09-09T07:37:50;15.40;81.70
71668;DHT22;59504;54.806;9.640;2022-09-09T07:39:51;15.50;81.80
71668;DHT22;59504;54.806;9.640;2022-09-09T07:41:51;15.50;81.70
71668;DHT22;59504;54.806;9.640;2022-09-09T07:43:54;15.50;81.70
71668;DHT22;59504;54.806;9.640;2022-09-09T07:46:01;15.50;81.60
71668;DHT22;59504;54.806;9.640;2022-09-09T07:48:02;15.50;81.60
71668;DHT22;59504;54.806;9.640;2022-09-09T07:50:03;15.50;81.60
71668;DHT22;59504;54.806;9.640;2022-09-09T07:52:04;15.60;81.60
71668;DHT22;59504;54.806;9.640;2022-09-09T07:54:07;15.50;81.50
71668;DHT22;59504;54.806;9.640;2022-09-09T07:56:11;15.70;81.70
71668;DHT22;59504;54.806;9.640;2022-09-09T07:58:12;15.60;81.70
71668;DHT22;59504;54.806;9.640;2022-09-09T08:00:14;15.70;81.90
71668;DHT22;59504;54.806;9.640;2022-09-09T08:02:15;15.70;81.80
71668;DHT22;59504;54.806;9.640;2022-09-09T08:04:17;15.70;81.60
71668;DHT22;59504;54.806;9.640;2022-09-09T08:06:19;15.70;81.60
71668;DHT22;59504;54.806;9.640;2022-09-09T08:08:19;15.80;81.40
71668;DHT22;59504;54.806;9.640;2022-09-09T08:10:20;15.80;81.20
71668;DHT22;59504;54.806;9.640;2022-09-09T08:12:21;15.80;81.10
71668;DHT22;59504;54.806;9.640;2022-09-09T08:14:22;15.80;81.00
71668;DHT22;59504;54.806;9.640;2022-09-09T08:16:26;15.90;80.90
71668;DHT22;59504;54.806;9.640;2022-09-09T08:18:27;15.90;80.90
71668;DHT22;59504;54.806;9.640;2022-09-09T08:20:28;15.90;80.80
71668;DHT22;59504;54.806;9.640;2022-09-09T08:22:29;15.90;80.70
71668;DHT22;59504;54.806;9.640;2022-09-09T08:24:29;16.00;80.50
71668;DHT22;59504;54.806;9.640;2022-09-09T08:26:42;16.00;80.40
71668;DHT22;59504;54.806;9.640;2022-09-09T08:28:43;16.00;80.20
71668;DHT22;59504;54.806;9.640;2022-09-09T08:30:44;16.00;80.10
71668;DHT22;59504;54.806;9.640;2022-09-09T08:32:45;16.10;80.00
71668;DHT22;59504;54.806;9.640;2022-09-09T08:34:46;16.10;80.00
71668;DHT22;59504;54.806;9.640;2022-09-09T08:36:48;16.10;80.00
71668;DHT22;59504;54.806;9.640;2022-09-09T08:38:50;16.10;80.00
71668;DHT22;59504;54.806;9.640;2022-09-09T08:40:53;16.10;80.00
71668;DHT22;59504;54.806;9.640;2022-09-09T08:43:02;16.20;80.00
71668;DHT22;59504;54.806;9.640;2022-09-09T08:47:38;16.30;79.40
71668;DHT22;59504;54.806;9.640;2022-09-09T08:50:16;16.30;79.40
71668;DHT22;59504;54.806;9.640;2022-09-09T08:52:23;16.30;79.00
71668;DHT22;59504;54.806;9.640;2022-09-09T08:54:27;16.40;79.10
71668;DHT22;59504;54.806;9.640;2022-09-09T08:56:32;16.40;79.10
71668;DHT22;59504;54.806;9.640;2022-09-09T08:58:35;16.40;79.00
71668;DHT22;59504;54.806;9.640;2022-09-09T09:10:54;16.60;78.50
71668;DHT22;59504;54.806;9.640;2022-09-09T09:12:58;16.60;78.50
71668;DHT22;59504;54.806;9.640;2022-09-09T09:14:59;16.60;78.20
71668;DHT22;59504;54.806;9.640;2022-09-09T09:17:18;16.60;78.00
71668;DHT22;59504;54.806;9.640;2022-09-09T09:19:20;16.60;78.00
71668;DHT22;59504;54.806;9.640;2022-09-09T09:21:34;16.60;78.00
71668;DHT22;59504;54.806;9.640;2022-09-09T09:24:02;16.60;78.00
71668;DHT22;59504;54.806;9.640;2022-09-09T09:26:07;16.70;77.90
71668;DHT22;59504;54.806;9.640;2022-09-09T09:28:16;16.70;78.00
71668;DHT22;59504;54.806;9.640;2022-09-09T09:30:25;16.80;78.20
71668;DHT22;59504;54.806;9.640;2022-09-09T09:32:30;16.80;78.30
71668;DHT22;59504;54.806;9.640;2022-09-09T09:34:31;16.80;78.40
71668;DHT22;59504;54.806;9.640;2022-09-09T09:36:41;16.90;78.60
71668;DHT22;59504;54.806;9.640;2022-09-09T09:38:53;17.00;78.70
71668;DHT22;59504;54.806;9.640;2022-09-09T09:40:57;17.00;78.40
71668;DHT22;59504;54.806;9.640;2022-09-09T09:43:00;17.10;78.50
71668;DHT22;59504;54.806;9.640;2022-09-09T09:45:35;17.10;78.30
71668;DHT22;59504;54.806;9.640;2022-09-09T09:47:36;17.20;78.20
71668;DHT22;59504;54.806;9.640;2022-09-09T09:49:36;17.30;78.60
71668;DHT22;59504;54.806;9.640;2022-09-09T09:51:37;17.40;78.90
71668;DHT22;59504;54.806;9.640;2022-09-09T09:53:38;17.40;78.80
71668;DHT22;59504;54.806;9.640;2022-09-09T09:55:57;17.60;79.20
71668;DHT22;59504;54.806;9.640;2022-09-09T09:58:02;17.70;79.10
71668;DHT22;59504;54.806;9.640;2022-09-09T10:00:16;17.80;78.70
71668;DHT22;59504;54.806;9.640;2022-09-09T10:02:23;17.90;78.00
71668;DHT22;59504;54.806;9.640;2022-09-09T10:04:26;18.00;77.60
71668;DHT22;59504;54.806;9.640;2022-09-09T10:06:37;18.10;77.30
71668;DHT22;59504;54.806;9.640;2022-09-09T10:08:45;18.20;76.60
71668;DHT22;59504;54.806;9.640;2022-09-09T10:18:32;18.40;73.80
71668;DHT22;59504;54.806;9.640;2022-09-09T10:22:44;18.50;73.30
71668;DHT22;59504;54.806;9.640;2022-09-09T10:27:15;18.60;73.60
71668;DHT22;59504;54.806;9.640;2022-09-09T10:31:58;18.80;72.90
71668;DHT22;59504;54.806;9.640;2022-09-09T10:36:27;18.90;71.60
71668;DHT22;59504;54.806;9.640;2022-09-09T10:38:39;18.90;71.60
71668;DHT22;59504;54.806;9.640;2022-09-09T10:48:30;19.10;71.00
71668;DHT22;59504;54.806;9.640;2022-09-09T10:50:51;19.10;70.60
71668;DHT22;59504;54.806;9.640;2022-09-09T10:55:24;19.30;70.10
71668;DHT22;59504;54.806;9.640;2022-09-09T10:57:36;19.30;70.00
71668;DHT22;59504;54.806;9.640;2022-09-09T10:59:42;19.30;70.00
71668;DHT22;59504;54.806;9.640;2022-09-09T11:03:54;19.30;69.00
71668;DHT22;59504;54.806;9.640;2022-09-09T11:06:00;19.30;68.80
71668;DHT22;59504;54.806;9.640;2022-09-09T11:08:12;19.30;68.70
71668;DHT22;59504;54.806;9.640;2022-09-09T11:10:23;19.30;68.50
71668;DHT22;59504;54.806;9.640;2022-09-09T11:12:27;19.30;68.70
71668;DHT22;59504;54.806;9.640;2022-09-09T11:14:57;19.30;68.80
71668;DHT22;59504;54.806;9.640;2022-09-09T11:17:21;19.30;68.50
71668;DHT22;59504;54.806;9.640;2022-09-09T11:19:43;19.30;68.60
71668;DHT22;59504;54.806;9.640;2022-09-09T11:21:48;19.30;68.60
71668;DHT22;59504;54.806;9.640;2022-09-09T11:23:57;19.30;69.90
71668;DHT22;59504;54.806;9.640;2022-09-09T11:26:02;19.30;69.60
71668;DHT22;59504;54.806;9.640;2022-09-09T11:35:22;19.50;69.00
71668;DHT22;59504;54.806;9.640;2022-09-09T11:37:47;19.50;68.70
71668;DHT22;59504;54.806;9.640;2022-09-09T11:44:19;19.70;68.70
71668;DHT22;59504;54.806;9.640;2022-09-09T11:46:35;19.60;67.30
71668;DHT22;59504;54.806;9.640;2022-09-09T11:48:57;19.70;67.60
71668;DHT22;59504;54.806;9.640;2022-09-09T11:51:10;19.70;67.80
71668;DHT22;59504;54.806;9.640;2022-09-09T11:53:20;19.80;67.10
71668;DHT22;59504;54.806;9.640;2022-09-09T11:55:28;19.80;67.10
71668;DHT22;59504;54.806;9.640;2022-09-09T11:57:35;19.80;66.90
71668;DHT22;59504;54.806;9.640;2022-09-09T11:59:36;19.80;66.70
71668;DHT22;59504;54.806;9.640;2022-09-09T12:01:45;19.90;66.40
71668;DHT22;59504;54.806;9.640;2022-09-09T12:03:54;19.90;66.50
71668;DHT22;59504;54.806;9.640;2022-09-09T12:05:56;19.90;66.30
71668;DHT22;59504;54.806;9.640;2022-09-09T12:07:58;19.90;66.20
71668;DHT22;59504;54.806;9.640;2022-09-09T12:12:29;19.90;65.60
71668;DHT22;59504;54.806;9.640;2022-09-09T12:14:37;19.90;66.00
71668;DHT22;59504;54.806;9.640;2022-09-09T12:16:38;19.90;65.90
71668;DHT22;59504;54.806;9.640;2022-09-09T12:18:40;19.90;65.80
71668;DHT22;59504;54.806;9.640;2022-09-09T12:20:57;19.80;65.60
71668;DHT22;59504;54.806;9.640;2022-09-09T12:25:30;19.80;65.50
71668;DHT22;59504;54.806;9.640;2022-09-09T12:27:43;19.80;64.40
71668;DHT22;59504;54.806;9.640;2022-09-09T12:30:17;19.80;65.50
71668;DHT22;59504;54.806;9.640;2022-09-09T12:32:23;19.80;65.50
71668;DHT22;59504;54.806;9.640;2022-09-09T12:34:40;19.90;65.80
71668;DHT22;59504;54.806;9.640;2022-09-09T12:36:42;19.90;65.40
71668;DHT22;59504;54.806;9.640;2022-09-09T12:38:45;19.90;65.70
71668;DHT22;59504;54.806;9.640;2022-09-09T12:40:55;20.00;65.10
71668;DHT22;59504;54.806;9.640;2022-09-09T12:42:56;20.00;65.50
71668;DHT22;59504;54.806;9.640;2022-09-09T12:44:59;20.10;65.10
71668;DHT22;59504;54.806;9.640;2022-09-09T12:47:01;20.10;64.70
71668;DHT22;59504;54.806;9.640;2022-09-09T12:49:03;20.20;64.50
71668;DHT22;59504;54.806;9.640;2022-09-09T12:51:16;20.20;64.30
71668;DHT22;59504;54.806;9.640;2022-09-09T12:53:23;20.20;63.20
71668;DHT22;59504;54.806;9.640;2022-09-09T12:55:32;20.30;63.20
71668;DHT22;59504;54.806;9.640;2022-09-09T12:57:37;20.30;62.60
71668;DHT22;59504;54.806;9.640;2022-09-09T12:59:39;20.30;62.40
71668;DHT22;59504;54.806;9.640;2022-09-09T13:01:40;20.30;62.80
71668;DHT22;59504;54.806;9.640;2022-09-09T13:03:44;20.30;62.60
71668;DHT22;59504;54.806;9.640;2022-09-09T13:05:46;20.30;62.20
71668;DHT22;59504;54.806;9.640;2022-09-09T13:07:47;20.30;62.30
71668;DHT22;59504;54.806;9.640;2022-09-09T13:09:49;20.30;62.30
71668;DHT22;59504;54.806;9.640;2022-09-09T13:11:53;20.30;62.50
71668;DHT22;59504;54.806;9.640;2022-09-09T13:13:57;20.30;62.40
71668;DHT22;59504;54.806;9.640;2022-09-09T13:16:00;20.40;62.10
71668;DHT22;59504;54.806;9.640;2022-09-09T13:18:05;20.40;62.10
71668;DHT22;59504;54.806;9.640;2022-09-09T13:20:14;20.40;61.40
71668;DHT22;59504;54.806;9.640;2022-09-09T13:24:30;20.50;60.60
71668;DHT22;59504;54.806;9.640;2022-09-09T13:26:31;20.50;61.00
71668;DHT22;59504;54.806;9.640;2022-09-09T13:28:32;20.50;60.90
71668;DHT22;59504;54.806;9.640;2022-09-09T13:30:37;20.50;60.90
71668;DHT22;59504;54.806;9.640;2022-09-09T13:32:41;20.50;60.70
71668;DHT22;59504;54.806;9.640;2022-09-09T13:34:51;20.50;60.80
71668;DHT22;59504;54.806;9.640;2022-09-09T13:36:59;20.50;60.10
71668;DHT22;59504;54.806;9.640;2022-09-09T13:39:03;20.50;60.40
71668;DHT22;59504;54.806;9.640;2022-09-09T13:41:06;20.50;60.30
71668;DHT22;59504;54.806;9.640;2022-09-09T13:43:19;20.50;61.40
71668;DHT22;59504;54.806;9.640;2022-09-09T13:45:24;20.40;62.60
71668;DHT22;59504;54.806;9.640;2022-09-09T13:47:36;20.40;63.00
71668;DHT22;59504;54.806;9.640;2022-09-09T13:49:37;20.30;63.90
71668;DHT22;59504;54.806;9.640;2022-09-09T13:51:39;20.30;63.70
71668;DHT22;59504;54.806;9.640;2022-09-09T13:53:40;20.20;63.60
71668;DHT22;59504;54.806;9.640;2022-09-09T13:55:41;20.20;64.00
71668;DHT22;59504;54.806;9.640;2022-09-09T13:58:15;20.20;64.30
71668;DHT22;59504;54.806;9.640;2022-09-09T14:00:16;20.10;64.60
71668;DHT22;59504;54.806;9.640;2022-09-09T14:02:17;20.10;64.90
71668;DHT22;59504;54.806;9.640;2022-09-09T14:04:18;20.00;64.90
71668;DHT22;59504;54.806;9.640;2022-09-09T14:06:21;19.90;65.30
71668;DHT22;59504;54.806;9.640;2022-09-09T14:08:26;19.90;65.50
71668;DHT22;59504;54.806;9.640;2022-09-09T14:10:28;19.80;65.30
71668;DHT22;59504;54.806;9.640;2022-09-09T14:12:29;19.70;65.40
71668;DHT22;59504;54.806;9.640;2022-09-09T14:14:30;19.70;65.60
71668;DHT22;59504;54.806;9.640;2022-09-09T14:16:30;19.60;65.80
71668;DHT22;59504;54.806;9.640;2022-09-09T14:18:31;19.60;66.00
71668;DHT22;59504;54.806;9.640;2022-09-09T14:20:32;19.50;66.10
71668;DHT22;59504;54.806;9.640;2022-09-09T14:22:33;19.50;66.30
71668;DHT22;59504;54.806;9.640;2022-09-09T14:24:33;19.40;66.50
71668;DHT22;59504;54.806;9.640;2022-09-09T14:26:34;19.30;66.70
71668;DHT22;59504;54.806;9.640;2022-09-09T14:28:36;19.20;67.20
71668;DHT22;59504;54.806;9.640;2022-09-09T14:30:38;19.10;67.60
71668;DHT22;59504;54.806;9.640;2022-09-09T14:32:39;19.20;67.90
71668;DHT22;59504;54.806;9.640;2022-09-09T14:34:40;19.10;68.10
71668;DHT22;59504;54.806;9.640;2022-09-09T14:36:41;19.00;68.30
71668;DHT22;59504;54.806;9.640;2022-09-09T14:38:42;19.00;68.20
71668;DHT22;59504;54.806;9.640;2022-09-09T14:40:45;19.00;67.80
71668;DHT22;59504;54.806;9.640;2022-09-09T14:42:47;18.90;67.40
71668;DHT22;59504;54.806;9.640;2022-09-09T14:44:47;18.90;67.10
71668;DHT22;59504;54.806;9.640;2022-09-09T14:46:48;18.90;66.20
71668;DHT22;59504;54.806;9.640;2022-09-09T14:48:50;18.80;65.90